createdAt,value
2018-02-21T00:00:26.947Z,61.90
2018-02-21T00:02:54.486Z,69.00
2018-02-21T00:05:21.994Z,60.15
2018-02-21T00:07:50.312Z,64.05
2018-02-21T00:10:17.882Z,57.53
2018-02-21T00:12:45.414Z,64.87
2018-02-21T00:15:12.943Z,62.10
2018-02-21T00:17:41.224Z,64.45
2018-02-21T00:20:08.756Z,68.78
2018-02-21T00:22:36.336Z,66.37
2018-02-21T00:25:03.854Z,62.58
2018-02-21T00:27:31.360Z,65.68
2018-02-21T00:29:59.656Z,65.43
2018-02-21T00:32:27.200Z,63.58
2018-02-21T00:34:54.728Z,63.00
2018-02-21T00:37:22.239Z,68.00
2018-02-21T00:39:49.782Z,62.17
2018-02-21T00:42:17.318Z,77.97
2018-02-21T00:44:45.616Z,63.75
2018-02-21T00:47:13.136Z,57.62
2018-02-21T00:49:40.668Z,64.32
2018-02-21T00:52:08.190Z,65.97
2018-02-21T00:54:35.758Z,62.92
2018-02-21T00:57:03.293Z,65.80
2018-02-21T00:59:31.550Z,67.97
2018-02-21T01:01:59.858Z,62.40
2018-02-21T01:04:27.435Z,64.55
2018-02-21T01:06:55.048Z,70.90
2018-02-21T01:09:22.571Z,67.32
2018-02-21T01:11:50.063Z,67.10
2018-02-21T01:14:17.562Z,66.97
2018-02-21T01:16:45.108Z,72.20
2018-02-21T01:19:13.405Z,69.65
2018-02-21T01:21:40.936Z,74.20
2018-02-21T01:24:09.202Z,67.78
2018-02-21T01:26:37.501Z,65.28
2018-02-21T01:29:05.010Z,77.43
2018-02-21T01:31:32.528Z,70.60
2018-02-21T01:34:00.032Z,74.65
2018-02-21T01:36:27.564Z,66.28
2018-02-21T01:38:55.064Z,65.55
2018-02-21T01:41:22.587Z,74.15
2018-02-21T01:43:50.092Z,65.25
2018-02-21T01:46:18.389Z,70.72
2018-02-21T01:48:45.913Z,65.28
2018-02-21T01:51:14.199Z,66.43
2018-02-21T01:53:42.479Z,68.28
2018-02-21T01:56:10.733Z,72.00
2018-02-21T01:58:38.248Z,73.65
2018-02-21T02:01:05.764Z,71.35
2018-02-21T02:03:34.072Z,68.78
2018-02-21T02:06:01.590Z,63.95
2018-02-21T02:08:29.121Z,65.97
2018-02-21T02:10:56.657Z,66.95
2018-02-21T02:13:24.199Z,64.03
2018-02-21T02:15:51.723Z,70.35
2018-02-21T02:18:19.249Z,69.50
2018-02-21T02:20:46.750Z,68.75
2018-02-21T02:23:15.048Z,68.30
2018-02-21T02:25:43.331Z,74.22
2018-02-21T02:28:10.846Z,66.70
2018-02-21T02:30:38.384Z,63.70
2018-02-21T02:33:05.904Z,71.00
2018-02-21T02:35:33.451Z,69.07
2018-02-21T02:38:01.740Z,66.37
2018-02-21T02:40:30.007Z,73.93
2018-02-21T02:42:58.298Z,68.62
2018-02-21T02:45:25.824Z,69.70
2018-02-21T02:47:53.377Z,72.82
2018-02-21T02:50:20.881Z,64.80
2018-02-21T02:52:48.406Z,69.80
2018-02-21T02:55:16.678Z,74.00
2018-02-21T02:57:44.964Z,66.75
2018-02-21T03:00:13.271Z,65.35
2018-02-21T03:02:40.771Z,66.15
2018-02-21T03:05:08.312Z,72.22
2018-02-21T03:07:35.838Z,64.57
2018-02-21T03:10:03.371Z,60.90
2018-02-21T03:12:31.669Z,70.40
2018-02-21T03:14:59.214Z,71.47
2018-02-21T03:17:27.502Z,66.15
2018-02-21T03:19:55.026Z,60.33
2018-02-21T03:22:22.563Z,70.93
2018-02-21T03:24:50.056Z,73.72
2018-02-21T03:27:18.381Z,70.03
2018-02-21T03:29:45.912Z,68.40
2018-02-21T03:32:13.451Z,66.60
2018-02-21T03:34:41.729Z,65.18
2018-02-21T03:37:10.022Z,68.12
2018-02-21T03:39:37.529Z,66.72
2018-02-21T03:42:05.039Z,68.35
2018-02-21T03:44:32.587Z,65.18
2018-02-21T03:47:00.875Z,71.22
2018-02-21T03:49:28.437Z,67.75
2018-02-21T03:51:55.955Z,72.43
2018-02-21T03:54:23.479Z,67.43
2018-02-21T03:56:50.971Z,71.12
2018-02-21T03:59:18.500Z,69.68
2018-02-21T04:01:46.005Z,68.82
2018-02-21T04:04:14.337Z,67.90
2018-02-21T04:06:41.843Z,71.60
2018-02-21T04:09:10.124Z,67.80
2018-02-21T04:11:38.395Z,73.20
2018-02-21T04:14:06.714Z,72.12
2018-02-21T04:16:34.219Z,68.43
2018-02-21T04:19:01.728Z,75.15
2018-02-21T04:21:29.270Z,73.35
2018-02-21T04:23:56.766Z,69.45
2018-02-21T04:26:24.271Z,71.00
2018-02-21T04:28:52.564Z,73.50
2018-02-21T04:31:20.070Z,78.32
2018-02-21T04:33:47.576Z,79.28
2018-02-21T04:36:15.112Z,76.37
2018-02-21T04:38:42.612Z,86.20
2018-02-21T04:41:10.934Z,72.15
2018-02-21T04:43:38.454Z,82.53
2018-02-21T04:46:05.973Z,77.43
2018-02-21T04:48:34.249Z,74.55
2018-02-21T04:51:01.788Z,76.60
2018-02-21T04:53:29.334Z,77.43
2018-02-21T04:59:11.352Z,90.72
2018-02-21T05:01:38.902Z,86.50
2018-02-21T05:04:06.412Z,88.55
2018-02-21T05:06:34.684Z,73.03
2018-02-21T05:09:02.981Z,85.20
2018-02-21T05:11:30.474Z,92.25
2018-02-21T05:13:57.996Z,88.65
2018-02-21T05:16:25.488Z,88.30
2018-02-21T05:18:53.018Z,89.78
2018-02-21T05:21:20.514Z,87.22
2018-02-21T05:23:48.012Z,92.78
2018-02-21T05:26:16.312Z,82.40
2018-02-21T05:28:43.809Z,98.05
2018-02-21T05:31:11.327Z,84.68
2018-02-21T05:33:38.814Z,90.43
2018-02-21T05:36:06.351Z,96.40
2018-02-21T05:38:33.876Z,87.62
2018-02-21T05:41:02.158Z,85.65
2018-02-21T05:43:29.665Z,88.28
2018-02-21T05:45:57.229Z,85.53
2018-02-21T05:48:24.729Z,93.25
2018-02-21T05:50:52.282Z,89.03
2018-02-21T05:53:20.551Z,86.40
2018-02-21T05:55:48.819Z,92.57
2018-02-21T05:58:16.355Z,90.12
2018-02-21T06:00:43.862Z,82.88
2018-02-21T06:03:11.397Z,95.60
2018-02-21T06:05:38.966Z,91.32
2018-02-21T06:08:07.232Z,84.57
2018-02-21T06:10:35.527Z,90.12
2018-02-21T06:13:03.825Z,87.07
2018-02-21T06:15:31.334Z,85.75
2018-02-21T06:17:58.853Z,83.45
2018-02-21T06:20:26.391Z,105.47
2018-02-21T06:22:53.927Z,95.22
2018-02-21T06:25:22.231Z,96.68
2018-02-21T06:27:49.746Z,112.93
2018-02-21T06:30:17.271Z,112.78
2018-02-21T06:32:44.764Z,92.53
2018-02-21T06:35:12.294Z,97.22
2018-02-21T06:37:39.799Z,97.82
2018-02-21T06:40:08.074Z,92.43
2018-02-21T06:42:36.330Z,94.07
2018-02-21T06:45:03.863Z,99.05
2018-02-21T06:47:31.372Z,84.68
2018-02-21T06:49:59.630Z,99.22
2018-02-21T06:52:27.147Z,77.20
2018-02-21T06:54:54.638Z,89.50
2018-02-21T06:57:22.151Z,84.80
2018-02-21T06:59:49.661Z,89.10
2018-02-21T07:02:29.734Z,89.32
2018-02-21T07:04:57.291Z,87.05
2018-02-21T07:07:25.582Z,95.62
2018-02-21T07:09:53.120Z,93.40
2018-02-21T07:12:21.443Z,91.28
2018-02-21T07:14:48.954Z,95.70
2018-02-21T07:17:17.227Z,91.37
2018-02-21T07:19:44.747Z,97.00
2018-02-21T07:22:12.254Z,90.38
2018-02-21T07:24:40.539Z,92.18
2018-02-21T07:27:08.827Z,99.18
2018-02-21T07:29:36.371Z,99.35
2018-02-21T07:32:04.628Z,105.50
2018-02-21T07:34:32.115Z,99.85
2018-02-21T07:36:59.655Z,104.12
2018-02-21T07:39:27.912Z,98.32
2018-02-21T07:41:55.435Z,100.40
2018-02-21T07:44:22.954Z,111.03
2018-02-21T07:46:51.259Z,113.57
2018-02-21T07:49:18.760Z,112.57
2018-02-21T07:51:46.276Z,107.47
2018-02-21T07:54:13.867Z,104.93
2018-02-21T07:56:41.405Z,106.55
2018-02-21T07:59:08.915Z,106.40
2018-02-21T08:01:37.244Z,108.47
2018-02-21T08:04:04.775Z,110.47
2018-02-21T08:06:32.322Z,105.50
2018-02-21T08:08:59.845Z,113.28
2018-02-21T08:11:27.390Z,111.12
2018-02-21T08:13:54.905Z,128.18
2018-02-21T08:16:22.407Z,110.05
2018-02-21T08:18:49.928Z,122.40
2018-02-21T08:21:17.448Z,112.32
2018-02-21T08:23:44.968Z,120.90
2018-02-21T08:26:12.492Z,116.65
2018-02-21T08:28:40.798Z,117.85
2018-02-21T08:31:08.316Z,114.15
2018-02-21T08:33:36.579Z,117.50
2018-02-21T08:36:04.878Z,104.25
2018-02-21T08:38:33.142Z,107.18
2018-02-21T08:41:01.672Z,107.85
2018-02-21T08:43:29.168Z,102.40
2018-02-21T08:45:57.518Z,112.22
2018-02-21T08:48:25.030Z,109.35
2018-02-21T08:50:52.571Z,110.55
2018-02-21T08:53:20.885Z,115.15
2018-02-21T08:55:48.435Z,108.32
2018-02-21T08:58:15.934Z,115.93
2018-02-21T09:00:43.452Z,107.70
2018-02-21T09:03:10.979Z,109.95
2018-02-21T09:05:38.511Z,104.07
2018-02-21T09:08:06.012Z,112.15
2018-02-21T09:10:34.276Z,106.93
2018-02-21T09:13:02.583Z,107.93
2018-02-21T09:15:30.087Z,96.87
2018-02-21T09:17:57.613Z,103.38
2018-02-21T09:20:25.109Z,108.10
2018-02-21T09:22:52.615Z,100.75
2018-02-21T09:25:20.130Z,102.05
2018-02-21T09:27:47.654Z,100.60
2018-02-21T09:30:15.141Z,94.60
2018-02-21T09:32:42.659Z,94.50
2018-02-21T09:35:10.153Z,99.40
2018-02-21T09:37:37.682Z,91.40
2018-02-21T09:40:05.213Z,91.63
2018-02-21T09:42:32.750Z,99.28
2018-02-21T09:45:01.042Z,94.40
2018-02-21T09:47:28.563Z,96.25
2018-02-21T09:49:56.118Z,93.15
2018-02-21T09:52:27.011Z,89.25
2018-02-21T09:54:54.569Z,88.53
2018-02-21T09:57:22.047Z,87.22
2018-02-21T09:59:49.578Z,90.05
2018-02-21T10:02:17.082Z,85.70
2018-02-21T10:04:44.578Z,84.05
2018-02-21T10:07:12.893Z,86.82
2018-02-21T10:09:40.849Z,78.53
2018-02-21T10:12:09.674Z,88.75
2018-02-21T10:14:37.204Z,82.07
2018-02-21T10:17:14.318Z,85.62
2018-02-21T10:19:41.839Z,92.45
2018-02-21T10:22:09.577Z,87.43
2018-02-21T10:24:37.868Z,95.80
2018-02-21T10:27:06.917Z,89.32
2018-02-21T10:29:34.452Z,84.97
2018-02-21T10:32:01.966Z,88.80
2018-02-21T10:34:30.259Z,93.43
2018-02-21T10:36:58.328Z,92.47
2018-02-21T10:39:26.610Z,96.05
2018-02-21T10:41:54.155Z,88.15
2018-02-21T10:44:22.448Z,87.50
2018-02-21T10:46:50.050Z,89.05
2018-02-21T10:49:17.577Z,83.72
2018-02-21T10:51:45.118Z,88.47
2018-02-21T10:54:13.401Z,103.22
2018-02-21T10:56:40.923Z,91.57
2018-02-21T10:59:08.431Z,90.65
2018-02-21T11:01:35.946Z,88.78
2018-02-21T11:04:03.491Z,89.45
2018-02-21T11:06:31.017Z,85.35
2018-02-21T11:08:58.590Z,90.38
2018-02-21T11:11:26.228Z,89.80
2018-02-21T11:13:53.747Z,90.75
2018-02-21T11:16:22.310Z,85.22
2018-02-21T11:18:49.856Z,86.37
2018-02-21T11:21:17.408Z,81.10
2018-02-21T11:23:44.956Z,81.60
2018-02-21T11:26:12.502Z,82.72
2018-02-21T11:28:40.018Z,80.60
2018-02-21T11:31:08.331Z,77.40
2018-02-21T11:33:35.869Z,74.80
2018-02-21T11:36:04.184Z,78.70
2018-02-21T11:38:31.743Z,78.77
2018-02-21T11:40:59.280Z,83.70
2018-02-21T11:43:26.815Z,87.53
2018-02-21T11:45:55.104Z,83.27
2018-02-21T11:48:23.399Z,75.87
2018-02-21T11:50:50.936Z,76.63
2018-02-21T11:53:19.202Z,77.30
2018-02-21T11:55:47.506Z,85.97
2018-02-21T11:58:15.035Z,68.17
2018-02-21T12:00:42.678Z,70.60
2018-02-21T12:03:10.202Z,71.30
2018-02-21T12:05:37.711Z,74.53
2018-02-21T12:08:06.015Z,75.33
2018-02-21T12:10:33.521Z,75.93
2018-02-21T12:13:01.050Z,81.33
2018-02-21T12:15:28.575Z,75.60
2018-02-21T12:17:56.844Z,76.30
2018-02-21T12:20:25.118Z,76.60
2018-02-21T12:22:53.391Z,72.37
2018-02-21T12:25:20.910Z,65.10
2018-02-21T12:27:48.463Z,74.20
2018-02-21T12:30:16.750Z,67.93
2018-02-21T12:32:49.711Z,72.43
2018-02-21T12:35:17.239Z,66.53
2018-02-21T12:37:45.506Z,64.13
2018-02-21T12:40:18.638Z,73.47
2018-02-21T12:42:46.167Z,61.60
2018-02-21T12:45:14.485Z,72.87
2018-02-21T12:47:42.004Z,64.37
2018-02-21T12:50:10.349Z,62.03
2018-02-21T12:52:37.800Z,66.23
2018-02-21T12:55:05.324Z,69.40
2018-02-21T12:57:32.826Z,64.13
2018-02-21T13:00:00.358Z,66.93
2018-02-21T13:02:27.911Z,63.63
2018-02-21T13:04:55.429Z,67.97
2018-02-21T13:07:23.746Z,61.57
2018-02-21T13:09:51.267Z,76.43
2018-02-21T13:12:19.575Z,62.10
2018-02-21T13:14:47.111Z,64.57
2018-02-21T13:17:14.633Z,62.03
2018-02-21T13:19:42.185Z,64.33
2018-02-21T13:22:09.703Z,61.93
2018-02-21T13:24:37.239Z,59.37
2018-02-21T13:27:04.789Z,61.50
2018-02-21T13:29:33.069Z,61.33
2018-02-21T13:32:01.358Z,61.33
2018-02-21T13:34:29.624Z,64.60
2018-02-21T13:36:57.919Z,64.70
2018-02-21T13:39:25.455Z,65.73
2018-02-21T13:41:53.774Z,57.33
2018-02-21T13:44:21.277Z,61.30
2018-02-21T13:46:48.816Z,60.63
2018-02-21T13:49:16.366Z,69.93
2018-02-21T13:51:43.916Z,58.17
2018-02-21T13:54:11.444Z,62.30
2018-02-21T13:56:38.994Z,59.10
2018-02-21T13:59:07.308Z,59.60
2018-02-21T14:01:34.820Z,62.13
2018-02-21T14:04:03.133Z,58.93
2018-02-21T14:06:30.663Z,61.73
2018-02-21T14:08:58.963Z,59.00
2018-02-21T14:11:26.495Z,63.30
2018-02-21T14:13:54.833Z,62.80
2018-02-21T14:16:22.360Z,62.43
2018-02-21T14:18:49.897Z,61.07
2018-02-21T14:21:18.344Z,66.27
2018-02-21T14:23:45.910Z,75.83
2018-02-21T14:26:13.455Z,76.83
2018-02-21T14:28:41.031Z,75.23
2018-02-21T14:31:08.557Z,73.33
2018-02-21T14:33:36.195Z,76.13
2018-02-21T14:36:03.703Z,76.47
2018-02-21T14:38:31.230Z,79.13
2018-02-21T14:40:58.763Z,75.83
2018-02-21T14:43:26.281Z,65.43
2018-02-21T14:45:53.838Z,74.33
2018-02-21T14:48:21.382Z,72.13
2018-02-21T14:50:48.892Z,76.13
2018-02-21T14:53:16.438Z,71.20
2018-02-21T14:55:44.729Z,77.53
2018-02-21T14:58:13.010Z,75.30
2018-02-21T15:00:40.518Z,71.80
2018-02-21T15:03:08.062Z,75.07
2018-02-21T15:05:35.623Z,71.83
2018-02-21T15:08:03.124Z,70.93
2018-02-21T15:10:31.406Z,64.47
2018-02-21T15:12:59.699Z,69.47
2018-02-21T15:15:27.255Z,75.67
2018-02-21T15:17:54.795Z,73.90
2018-02-21T15:20:23.119Z,67.90
2018-02-21T15:22:50.655Z,66.13
2018-02-21T15:25:18.198Z,65.97
2018-02-21T15:27:46.458Z,72.97
2018-02-21T15:30:13.986Z,73.30
2018-02-21T15:32:41.546Z,77.20
2018-02-21T15:35:09.107Z,77.03
2018-02-21T15:37:36.644Z,65.10
2018-02-21T15:40:04.176Z,71.28
2018-02-21T15:42:32.455Z,63.20
2018-02-21T15:44:59.994Z,66.30
2018-02-21T15:47:28.271Z,70.93
2018-02-21T15:49:56.576Z,61.23
2018-02-21T15:52:24.116Z,65.60
2018-02-21T15:54:51.643Z,66.22
2018-02-21T15:57:19.162Z,60.97
2018-02-21T15:59:46.733Z,63.75
2018-02-21T16:02:14.235Z,61.93
2018-02-21T16:04:42.572Z,58.67
2018-02-21T16:07:10.083Z,53.70
2018-02-21T16:09:37.634Z,57.17
2018-02-21T16:12:05.968Z,57.77
2018-02-21T16:14:33.496Z,62.97
2018-02-21T16:17:01.034Z,60.25
2018-02-21T16:19:29.345Z,57.62
2018-02-21T16:21:56.862Z,61.95
2018-02-21T16:24:25.166Z,60.10
2018-02-21T16:26:52.705Z,60.90
2018-02-21T16:29:21.013Z,56.25
2018-02-21T16:31:48.537Z,65.62
2018-02-21T16:34:16.821Z,59.17
2018-02-21T16:36:45.100Z,57.38
2018-02-21T16:39:12.612Z,52.45
2018-02-21T16:41:40.145Z,56.60
2018-02-21T16:44:07.701Z,56.72
2018-02-21T16:46:35.963Z,61.65
2018-02-21T16:49:03.509Z,64.37
2018-02-21T16:51:31.788Z,57.30
2018-02-21T16:54:05.098Z,55.83
2018-02-21T16:56:32.631Z,57.40
2018-02-21T16:59:00.928Z,51.13
2018-02-21T17:01:28.500Z,52.17
2018-02-21T17:03:56.036Z,53.95
2018-02-21T17:06:23.538Z,51.37
2018-02-21T17:08:51.095Z,51.42
2018-02-21T17:11:18.620Z,55.00
2018-02-21T17:13:46.162Z,59.47
2018-02-21T17:16:14.450Z,51.92
2018-02-21T17:18:41.990Z,50.35
2018-02-21T17:21:10.333Z,53.15
2018-02-21T17:23:37.911Z,58.78
2018-02-21T17:26:05.438Z,58.20
2018-02-21T17:28:32.954Z,54.53
2018-02-21T17:31:01.231Z,57.17
2018-02-21T17:33:29.551Z,54.10
2018-02-21T17:35:57.073Z,55.50
2018-02-21T17:38:24.628Z,52.65
2018-02-21T17:40:58.679Z,54.92
2018-02-21T17:43:26.210Z,46.92
2018-02-21T17:45:53.786Z,49.58
2018-02-21T17:48:21.320Z,50.00
2018-02-21T17:50:49.684Z,47.25
2018-02-21T18:14:50.717Z,49.30
2018-02-21T18:31:39.152Z,42.65
2018-02-21T18:34:06.680Z,47.92
2018-02-21T18:36:34.971Z,47.25
2018-02-21T18:39:02.483Z,39.10
2018-02-21T18:41:30.003Z,39.40
2018-02-21T18:43:57.575Z,38.20
2018-02-21T18:46:25.081Z,39.40
2018-02-21T18:48:54.318Z,38.55
2018-02-21T18:51:22.286Z,38.45
2018-02-21T18:53:50.624Z,37.45
2018-02-21T18:56:19.006Z,39.90
2018-02-21T18:58:47.357Z,35.97
2018-02-21T19:01:14.927Z,39.33
2018-02-21T19:03:42.430Z,38.35
2018-02-21T19:06:09.978Z,42.50
2018-02-21T19:08:37.483Z,37.25
2018-02-21T19:11:05.040Z,37.33
2018-02-21T19:13:32.572Z,38.70
2018-02-21T19:16:00.105Z,46.85
2018-02-21T19:18:28.406Z,40.08
2018-02-21T19:20:56.694Z,40.70
2018-02-21T19:23:24.223Z,43.97
2018-02-21T19:25:51.741Z,43.58
2018-02-21T19:28:19.261Z,43.13
2018-02-21T19:30:46.881Z,45.25
2018-02-21T19:33:15.203Z,45.30
2018-02-21T19:35:46.385Z,44.35
2018-02-21T19:38:13.923Z,45.08
2018-02-21T19:40:41.500Z,38.90
2018-02-21T19:43:09.035Z,44.72
2018-02-21T19:45:36.956Z,42.05
2018-02-21T19:48:05.250Z,44.83
2018-02-21T19:50:32.781Z,42.90
2018-02-21T19:53:01.124Z,42.20
2018-02-21T19:55:28.644Z,43.25
2018-02-21T19:57:56.220Z,40.47
2018-02-21T20:00:23.776Z,42.62
2018-02-21T20:02:51.320Z,38.95
2018-02-21T20:05:18.841Z,40.70
2018-02-21T20:07:46.364Z,49.70
2018-02-21T20:10:13.916Z,43.30
2018-02-21T20:12:41.456Z,41.33
2018-02-21T20:15:09.000Z,45.80
2018-02-21T20:17:37.332Z,48.78
2018-02-21T20:20:04.879Z,53.45
2018-02-21T20:22:40.244Z,53.65
2018-02-21T20:25:07.781Z,51.63
2018-02-21T20:27:35.334Z,53.67
2018-02-21T20:30:02.862Z,51.92
2018-02-21T20:32:30.397Z,54.72
2018-02-21T20:35:00.539Z,54.03
2018-02-21T20:37:28.854Z,53.00
2018-02-21T20:39:56.405Z,58.10
2018-02-21T20:42:23.934Z,53.80
2018-02-21T20:44:52.250Z,60.17
2018-02-21T20:47:19.772Z,66.85
2018-02-21T20:49:47.328Z,60.35
2018-02-21T20:52:15.629Z,64.07
2018-02-21T20:54:43.167Z,63.08
2018-02-21T20:57:10.717Z,62.72
2018-02-21T20:59:39.018Z,62.30
2018-02-21T21:02:06.548Z,63.42
2018-02-21T21:04:34.887Z,60.22
2018-02-21T21:07:06.172Z,70.80
2018-02-21T21:09:34.601Z,60.90
2018-02-21T21:12:02.146Z,64.47
2018-02-21T21:14:29.677Z,66.68
2018-02-21T21:16:57.996Z,61.97
2018-02-21T21:19:25.500Z,63.58
2018-02-21T21:21:53.796Z,71.82
2018-02-21T21:24:21.358Z,64.07
2018-02-21T21:26:48.876Z,63.72
2018-02-21T21:29:16.385Z,63.75
2018-02-21T21:31:43.923Z,67.47
2018-02-21T21:34:12.204Z,60.12
2018-02-21T21:36:40.526Z,62.15
2018-02-21T21:39:08.058Z,64.65
2018-02-21T21:41:35.579Z,67.05
2018-02-21T21:44:03.878Z,61.00
2018-02-21T21:46:31.424Z,62.55
2018-02-21T21:48:59.733Z,64.35
2018-02-21T21:51:27.266Z,65.82
2018-02-21T21:53:55.538Z,61.90
2018-02-21T21:56:23.911Z,57.90
2018-02-21T21:58:51.400Z,58.65
2018-02-21T22:01:18.912Z,56.60
2018-02-21T22:03:46.442Z,53.45
2018-02-21T22:06:13.966Z,57.58
2018-02-21T22:08:41.499Z,58.53
2018-02-21T22:11:09.806Z,57.67
2018-02-21T22:13:37.336Z,54.78
2018-02-21T22:16:05.626Z,63.55
2018-02-21T22:18:33.169Z,57.58
2018-02-21T22:21:01.445Z,52.38
2018-02-21T22:23:29.757Z,53.75
2018-02-21T22:25:57.263Z,55.75
2018-02-21T22:28:24.817Z,53.13
2018-02-21T22:30:52.326Z,58.10
2018-02-21T22:33:19.869Z,57.80
2018-02-21T22:35:48.295Z,52.28
2018-02-21T22:38:15.832Z,53.70
2018-02-21T22:40:43.353Z,54.35
2018-02-21T22:43:10.906Z,58.08
2018-02-21T22:45:38.397Z,53.30
2018-02-21T22:48:05.936Z,49.08
2018-02-21T22:50:34.231Z,58.47
2018-02-21T22:53:01.763Z,55.40
2018-02-21T22:55:30.039Z,57.78
2018-02-21T22:57:57.551Z,56.70
2018-02-21T23:00:25.063Z,58.17
2018-02-21T23:02:53.390Z,55.22
2018-02-21T23:05:20.922Z,61.63
2018-02-21T23:07:48.444Z,57.53
2018-02-21T23:10:15.958Z,54.33
2018-02-21T23:12:43.467Z,57.13
2018-02-21T23:15:11.754Z,53.97
2018-02-21T23:17:40.054Z,53.17
2018-02-21T23:20:07.579Z,57.03
2018-02-21T23:22:35.123Z,59.33
2018-02-21T23:25:02.627Z,58.83
2018-02-21T23:27:30.162Z,53.30
2018-02-21T23:29:58.434Z,53.97
2018-02-21T23:32:26.715Z,57.22
2018-02-21T23:34:55.003Z,59.90
2018-02-21T23:37:23.283Z,54.85
2018-02-21T23:39:50.819Z,59.47
2018-02-21T23:42:18.398Z,57.97
2018-02-21T23:44:45.951Z,59.10
2018-02-21T23:47:14.259Z,57.50
2018-02-21T23:49:41.787Z,62.42
2018-02-21T23:52:10.091Z,59.55
2018-02-21T23:54:37.598Z,55.92
2018-02-21T23:57:05.134Z,60.33
2018-02-21T23:59:32.673Z,65.93
